sensor_id;sensor_type;location;lat;lon;timestamp;pressure;altitude;pressure_sealevel;temperature;humidity
75740;BME280;64357;51.344;6.550;2023-07-08T00:01:59;101180.72;;;22.25;52.49
75740;BME280;64357;51.344;6.550;2023-07-08T00:04:28;101193.66;;;22.23;52.64
75740;BME280;64357;51.344;6.550;2023-07-08T00:06:53;101184.16;;;22.24;52.07
75740;BME280;64357;51.344;6.550;2023-07-08T00:09:18;101184.91;;;22.08;52.72
75740;BME280;64357;51.344;6.550;2023-07-08T00:11:46;101168.41;;;22.07;52.95
75740;BME280;64357;51.344;6.550;2023-07-08T00:14:11;101177.84;;;22.05;53.26
75740;BME280;64357;51.344;6.550;2023-07-08T00:16:37;101171.09;;;22.09;53.35
75740;BME280;64357;51.344;6.550;2023-07-08T00:19:08;101172.09;;;22.26;53.03
75740;BME280;64357;51.344;6.550;2023-07-08T00:21:36;101168.59;;;22.25;52.99
75740;BME280;64357;51.344;6.550;2023-07-08T00:24:01;101175.94;;;22.32;52.92
75740;BME280;64357;51.344;6.550;2023-07-08T00:26:29;101173.91;;;22.27;53.44
75740;BME280;64357;51.344;6.550;2023-07-08T00:28:55;101177.50;;;22.29;53.42
75740;BME280;64357;51.344;6.550;2023-07-08T00:31:25;101172.13;;;22.11;54.20
75740;BME280;64357;51.344;6.550;2023-07-08T00:33:54;101161.13;;;22.02;54.37
75740;BME280;64357;51.344;6.550;2023-07-08T00:36:23;101169.31;;;21.93;54.75
75740;BME280;64357;51.344;6.550;2023-07-08T00:38:50;101167.63;;;21.94;55.09
75740;BME280;64357;51.344;6.550;2023-07-08T00:46:13;101167.41;;;21.76;55.76
75740;BME280;64357;51.344;6.550;2023-07-08T00:48:44;101167.06;;;21.70;56.34
75740;BME280;64357;51.344;6.550;2023-07-08T00:51:11;101151.69;;;21.60;56.61
75740;BME280;64357;51.344;6.550;2023-07-08T00:53:41;101161.50;;;21.64;56.95
75740;BME280;64357;51.344;6.550;2023-07-08T00:56:12;101167.47;;;21.63;57.12
75740;BME280;64357;51.344;6.550;2023-07-08T00:58:48;101169.53;;;21.53;57.00
75740;BME280;64357;51.344;6.550;2023-07-08T01:01:15;101163.97;;;21.62;57.20
75740;BME280;64357;51.344;6.550;2023-07-08T01:04:02;101162.09;;;21.60;57.53
75740;BME280;64357;51.344;6.550;2023-07-08T01:06:31;101160.19;;;21.57;57.98
75740;BME280;64357;51.344;6.550;2023-07-08T01:09:01;101162.78;;;21.57;57.49
75740;BME280;64357;51.344;6.550;2023-07-08T01:11:31;101161.28;;;21.61;57.50
75740;BME280;64357;51.344;6.550;2023-07-08T01:13:59;101158.41;;;21.56;58.23
75740;BME280;64357;51.344;6.550;2023-07-08T01:16:29;101160.72;;;21.51;58.21
75740;BME280;64357;51.344;6.550;2023-07-08T01:19:00;101159.31;;;21.56;58.05
75740;BME280;64357;51.344;6.550;2023-07-08T01:21:35;101157.88;;;21.62;58.17
75740;BME280;64357;51.344;6.550;2023-07-08T01:24:04;101154.81;;;21.54;57.99
75740;BME280;64357;51.344;6.550;2023-07-08T01:26:31;101155.53;;;21.51;58.07
75740;BME280;64357;51.344;6.550;2023-07-08T01:28:58;101154.38;;;21.46;58.06
75740;BME280;64357;51.344;6.550;2023-07-08T01:31:24;101144.91;;;21.34;58.56
75740;BME280;64357;51.344;6.550;2023-07-08T01:33:52;101151.94;;;21.35;58.80
75740;BME280;64357;51.344;6.550;2023-07-08T01:36:22;101144.38;;;21.39;58.68
75740;BME280;64357;51.344;6.550;2023-07-08T01:38:48;101140.88;;;21.39;58.73
75740;BME280;64357;51.344;6.550;2023-07-08T01:41:15;101137.22;;;21.35;59.19
75740;BME280;64357;51.344;6.550;2023-07-08T01:43:42;101144.13;;;21.35;59.47
75740;BME280;64357;51.344;6.550;2023-07-08T01:46:24;101142.44;;;21.35;59.73
75740;BME280;64357;51.344;6.550;2023-07-08T01:48:56;101136.84;;;21.29;60.03
75740;BME280;64357;51.344;6.550;2023-07-08T01:51:23;101129.56;;;21.23;59.95
75740;BME280;64357;51.344;6.550;2023-07-08T01:53:50;101136.16;;;21.18;60.02
75740;BME280;64357;51.344;6.550;2023-07-08T01:56:16;101129.19;;;21.17;59.96
75740;BME280;64357;51.344;6.550;2023-07-08T01:58:41;101131.13;;;21.21;59.66
75740;BME280;64357;51.344;6.550;2023-07-08T02:01:07;101126.94;;;21.23;59.50
75740;BME280;64357;51.344;6.550;2023-07-08T02:03:33;101127.72;;;21.22;59.87
75740;BME280;64357;51.344;6.550;2023-07-08T02:05:59;101103.97;;;21.16;58.95
75740;BME280;64357;51.344;6.550;2023-07-08T02:08:24;101114.22;;;21.28;59.66
75740;BME280;64357;51.344;6.550;2023-07-08T02:10:52;101107.75;;;21.21;60.28
75740;BME280;64357;51.344;6.550;2023-07-08T02:13:19;101109.38;;;21.19;60.09
75740;BME280;64357;51.344;6.550;2023-07-08T02:15:44;101096.44;;;21.06;60.66
75740;BME280;64357;51.344;6.550;2023-07-08T02:18:12;101104.25;;;21.06;60.94
75740;BME280;64357;51.344;6.550;2023-07-08T02:20:37;101102.03;;;20.99;60.38
75740;BME280;64357;51.344;6.550;2023-07-08T02:23:05;101109.81;;;20.99;60.58
75740;BME280;64357;51.344;6.550;2023-07-08T02:25:31;101119.31;;;21.12;59.71
75740;BME280;64357;51.344;6.550;2023-07-08T02:27:58;101112.03;;;21.06;60.35
75740;BME280;64357;51.344;6.550;2023-07-08T02:30:27;101105.03;;;21.05;59.80
75740;BME280;64357;51.344;6.550;2023-07-08T02:32:53;101102.16;;;21.28;59.09
75740;BME280;64357;51.344;6.550;2023-07-08T02:35:29;101103.25;;;21.32;59.09
75740;BME280;64357;51.344;6.550;2023-07-08T02:37:55;101105.34;;;21.24;59.58
75740;BME280;64357;51.344;6.550;2023-07-08T02:40:22;101094.44;;;21.02;59.98
75740;BME280;64357;51.344;6.550;2023-07-08T02:42:48;101100.03;;;21.08;60.37
75740;BME280;64357;51.344;6.550;2023-07-08T02:45:17;101096.25;;;21.03;60.50
75740;BME280;64357;51.344;6.550;2023-07-08T02:47:42;101092.94;;;21.06;60.48
75740;BME280;64357;51.344;6.550;2023-07-08T02:50:09;101099.84;;;21.05;60.91
75740;BME280;64357;51.344;6.550;2023-07-08T02:52:35;101107.09;;;21.11;60.66
75740;BME280;64357;51.344;6.550;2023-07-08T02:55:01;101103.84;;;21.00;61.33
75740;BME280;64357;51.344;6.550;2023-07-08T02:57:26;101102.31;;;21.03;60.70
75740;BME280;64357;51.344;6.550;2023-07-08T02:59:52;101109.50;;;21.08;60.93
75740;BME280;64357;51.344;6.550;2023-07-08T03:02:17;101108.16;;;20.99;60.80
75740;BME280;64357;51.344;6.550;2023-07-08T03:04:45;101105.06;;;20.92;61.44
75740;BME280;64357;51.344;6.550;2023-07-08T03:07:11;101102.97;;;20.86;61.38
75740;BME280;64357;51.344;6.550;2023-07-08T03:09:39;101101.50;;;20.90;61.04
75740;BME280;64357;51.344;6.550;2023-07-08T03:12:06;101098.28;;;20.94;62.37
75740;BME280;64357;51.344;6.550;2023-07-08T03:14:32;101104.25;;;20.93;63.17
75740;BME280;64357;51.344;6.550;2023-07-08T03:16:57;101098.09;;;20.91;63.05
75740;BME280;64357;51.344;6.550;2023-07-08T03:19:27;101103.78;;;20.85;64.18
75740;BME280;64357;51.344;6.550;2023-07-08T03:21:52;101086.25;;;20.68;64.79
75740;BME280;64357;51.344;6.550;2023-07-08T03:24:17;101099.25;;;20.68;65.09
75740;BME280;64357;51.344;6.550;2023-07-08T03:26:45;101105.66;;;20.60;66.38
75740;BME280;64357;51.344;6.550;2023-07-08T03:29:15;101096.19;;;20.60;66.53
75740;BME280;64357;51.344;6.550;2023-07-08T03:31:40;101109.56;;;20.53;66.96
75740;BME280;64357;51.344;6.550;2023-07-08T03:34:09;101104.47;;;20.41;67.89
75740;BME280;64357;51.344;6.550;2023-07-08T03:36:37;101107.06;;;20.55;66.98
75740;BME280;64357;51.344;6.550;2023-07-08T03:39:05;101104.75;;;20.59;65.88
75740;BME280;64357;51.344;6.550;2023-07-08T03:41:33;101105.66;;;20.60;65.76
75740;BME280;64357;51.344;6.550;2023-07-08T03:43:58;101106.97;;;20.53;66.47
75740;BME280;64357;51.344;6.550;2023-07-08T03:46:24;101109.34;;;20.37;67.98
75740;BME280;64357;51.344;6.550;2023-07-08T03:48:49;101109.25;;;20.35;67.20
75740;BME280;64357;51.344;6.550;2023-07-08T03:51:26;101096.97;;;20.33;68.25
75740;BME280;64357;51.344;6.550;2023-07-08T03:53:54;101105.25;;;20.27;68.64
75740;BME280;64357;51.344;6.550;2023-07-08T03:56:20;101109.16;;;20.20;69.36
75740;BME280;64357;51.344;6.550;2023-07-08T03:58:45;101103.47;;;20.13;69.70
75740;BME280;64357;51.344;6.550;2023-07-08T04:01:22;101112.44;;;20.05;70.94
75740;BME280;64357;51.344;6.550;2023-07-08T04:03:50;101112.03;;;19.98;71.13
75740;BME280;64357;51.344;6.550;2023-07-08T04:06:19;101110.44;;;20.01;70.68
75740;BME280;64357;51.344;6.550;2023-07-08T04:08:45;101114.75;;;20.00;71.15
75740;BME280;64357;51.344;6.550;2023-07-08T04:11:16;101109.44;;;19.98;70.87
75740;BME280;64357;51.344;6.550;2023-07-08T04:13:42;101114.03;;;20.03;70.89
75740;BME280;64357;51.344;6.550;2023-07-08T04:16:13;101111.53;;;20.04;70.57
75740;BME280;64357;51.344;6.550;2023-07-08T04:18:43;101108.94;;;20.04;71.43
75740;BME280;64357;51.344;6.550;2023-07-08T04:21:09;101107.16;;;20.03;71.04
75740;BME280;64357;51.344;6.550;2023-07-08T04:23:34;101117.75;;;20.06;70.92
75740;BME280;64357;51.344;6.550;2023-07-08T04:26:00;101122.13;;;20.07;71.32
75740;BME280;64357;51.344;6.550;2023-07-08T04:28:26;101124.72;;;20.07;70.45
75740;BME280;64357;51.344;6.550;2023-07-08T04:30:51;101131.69;;;20.08;70.59
75740;BME280;64357;51.344;6.550;2023-07-08T04:33:17;101126.59;;;20.10;70.43
75740;BME280;64357;51.344;6.550;2023-07-08T04:35:43;101125.59;;;20.21;69.66
75740;BME280;64357;51.344;6.550;2023-07-08T04:38:22;101114.56;;;20.23;70.10
75740;BME280;64357;51.344;6.550;2023-07-08T04:40:49;101107.75;;;20.12;70.26
75740;BME280;64357;51.344;6.550;2023-07-08T04:43:16;101119.03;;;20.26;69.11
75740;BME280;64357;51.344;6.550;2023-07-08T04:45:45;101128.59;;;20.27;69.04
75740;BME280;64357;51.344;6.550;2023-07-08T04:48:14;101124.69;;;20.34;67.46
75740;BME280;64357;51.344;6.550;2023-07-08T04:50:44;101130.91;;;20.36;67.14
75740;BME280;64357;51.344;6.550;2023-07-08T04:53:10;101126.53;;;20.35;66.91
75740;BME280;64357;51.344;6.550;2023-07-08T04:55:38;101131.91;;;20.38;69.20
75740;BME280;64357;51.344;6.550;2023-07-08T04:58:04;101124.63;;;20.32;70.08
75740;BME280;64357;51.344;6.550;2023-07-08T05:00:32;101124.94;;;20.23;70.61
75740;BME280;64357;51.344;6.550;2023-07-08T05:02:57;101124.63;;;20.19;71.10
75740;BME280;64357;51.344;6.550;2023-07-08T05:05:23;101115.31;;;20.09;71.50
75740;BME280;64357;51.344;6.550;2023-07-08T05:07:49;101119.13;;;20.14;72.13
75740;BME280;64357;51.344;6.550;2023-07-08T05:10:15;101117.13;;;20.10;72.67
75740;BME280;64357;51.344;6.550;2023-07-08T05:12:41;101118.00;;;20.11;73.02
75740;BME280;64357;51.344;6.550;2023-07-08T05:15:07;101114.16;;;20.17;72.95
75740;BME280;64357;51.344;6.550;2023-07-08T05:17:36;101101.78;;;20.13;71.76
75740;BME280;64357;51.344;6.550;2023-07-08T05:20:02;101114.63;;;20.25;71.51
75740;BME280;64357;51.344;6.550;2023-07-08T05:22:28;101114.13;;;20.44;69.93
75740;BME280;64357;51.344;6.550;2023-07-08T05:24:53;101118.13;;;20.65;68.81
75740;BME280;64357;51.344;6.550;2023-07-08T05:27:22;101113.63;;;20.76;68.50
75740;BME280;64357;51.344;6.550;2023-07-08T05:29:48;101118.84;;;20.91;67.07
75740;BME280;64357;51.344;6.550;2023-07-08T05:32:14;101115.03;;;20.99;67.18
75740;BME280;64357;51.344;6.550;2023-07-08T05:34:43;101123.09;;;21.03;66.79
75740;BME280;64357;51.344;6.550;2023-07-08T05:37:11;101127.84;;;21.24;67.24
75740;BME280;64357;51.344;6.550;2023-07-08T05:39:37;101118.13;;;21.35;65.09
75740;BME280;64357;51.344;6.550;2023-07-08T05:42:07;101130.25;;;21.49;65.74
75740;BME280;64357;51.344;6.550;2023-07-08T05:44:33;101120.59;;;21.61;63.84
75740;BME280;64357;51.344;6.550;2023-07-08T05:47:01;101115.13;;;21.71;63.32
75740;BME280;64357;51.344;6.550;2023-07-08T05:49:28;101123.63;;;21.98;61.32
75740;BME280;64357;51.344;6.550;2023-07-08T05:51:54;101123.34;;;22.08;61.55
75740;BME280;64357;51.344;6.550;2023-07-08T05:54:21;101128.13;;;22.30;59.85
75740;BME280;64357;51.344;6.550;2023-07-08T05:56:51;101126.22;;;22.43;59.65
75740;BME280;64357;51.344;6.550;2023-07-08T05:59:19;101117.31;;;22.54;58.00
75740;BME280;64357;51.344;6.550;2023-07-08T06:01:44;101105.09;;;22.53;55.49
75740;BME280;64357;51.344;6.550;2023-07-08T06:04:10;101116.53;;;22.71;55.72
75740;BME280;64357;51.344;6.550;2023-07-08T06:06:38;101106.78;;;22.83;54.05
75740;BME280;64357;51.344;6.550;2023-07-08T06:09:05;101114.97;;;23.06;54.33
75740;BME280;64357;51.344;6.550;2023-07-08T06:11:31;101122.13;;;23.26;51.82
75740;BME280;64357;51.344;6.550;2023-07-08T06:13:56;101119.44;;;23.41;48.72
75740;BME280;64357;51.344;6.550;2023-07-08T06:16:24;101129.38;;;23.64;49.09
75740;BME280;64357;51.344;6.550;2023-07-08T06:18:49;101128.91;;;23.89;47.27
75740;BME280;64357;51.344;6.550;2023-07-08T06:21:17;101127.78;;;24.02;47.51
75740;BME280;64357;51.344;6.550;2023-07-08T06:23:45;101129.44;;;24.00;46.70
75740;BME280;64357;51.344;6.550;2023-07-08T06:26:10;101139.59;;;24.12;45.97
75740;BME280;64357;51.344;6.550;2023-07-08T06:28:36;101142.19;;;23.94;45.38
75740;BME280;64357;51.344;6.550;2023-07-08T06:31:01;101146.28;;;24.07;45.48
75740;BME280;64357;51.344;6.550;2023-07-08T06:33:26;101137.81;;;24.29;44.43
75740;BME280;64357;51.344;6.550;2023-07-08T06:35:52;101140.13;;;24.23;44.64
75740;BME280;64357;51.344;6.550;2023-07-08T06:38:19;101131.50;;;24.41;44.64
75740;BME280;64357;51.344;6.550;2023-07-08T06:40:47;101130.81;;;24.28;44.63
75740;BME280;64357;51.344;6.550;2023-07-08T06:43:12;101134.66;;;24.34;44.79
75740;BME280;64357;51.344;6.550;2023-07-08T06:45:37;101117.50;;;24.39;44.27
75740;BME280;64357;51.344;6.550;2023-07-08T06:48:03;101128.94;;;24.61;43.72
75740;BME280;64357;51.344;6.550;2023-07-08T06:50:29;101112.38;;;24.60;44.05
75740;BME280;64357;51.344;6.550;2023-07-08T06:52:57;101126.56;;;24.48;44.70
75740;BME280;64357;51.344;6.550;2023-07-08T06:55:29;101115.34;;;24.50;45.08
75740;BME280;64357;51.344;6.550;2023-07-08T06:57:55;101120.44;;;24.65;44.50
75740;BME280;64357;51.344;6.550;2023-07-08T07:00:23;101107.44;;;24.66;44.20
75740;BME280;64357;51.344;6.550;2023-07-08T07:02:51;101117.84;;;24.84;43.96
75740;BME280;64357;51.344;6.550;2023-07-08T07:05:18;101124.69;;;25.00;43.16
75740;BME280;64357;51.344;6.550;2023-07-08T07:07:48;101121.53;;;25.07;43.30
75740;BME280;64357;51.344;6.550;2023-07-08T07:10:14;101104.69;;;25.20;42.63
75740;BME280;64357;51.344;6.550;2023-07-08T07:12:41;101099.63;;;25.63;41.68
75740;BME280;64357;51.344;6.550;2023-07-08T07:15:07;101108.44;;;26.28;40.19
75740;BME280;64357;51.344;6.550;2023-07-08T07:17:32;101111.88;;;26.70;39.67
75740;BME280;64357;51.344;6.550;2023-07-08T07:19:59;101110.44;;;27.25;38.67
75740;BME280;64357;51.344;6.550;2023-07-08T07:22:27;101124.06;;;27.88;35.95
75740;BME280;64357;51.344;6.550;2023-07-08T07:24:56;101113.41;;;27.34;34.74
75740;BME280;64357;51.344;6.550;2023-07-08T07:27:21;101108.59;;;27.46;34.23
75740;BME280;64357;51.344;6.550;2023-07-08T07:29:52;101122.97;;;27.81;33.39
75740;BME280;64357;51.344;6.550;2023-07-08T07:32:19;101124.88;;;27.85;33.13
75740;BME280;64357;51.344;6.550;2023-07-08T07:34:48;101119.38;;;28.05;32.29
75740;BME280;64357;51.344;6.550;2023-07-08T07:37:14;101133.69;;;27.87;32.39
75740;BME280;64357;51.344;6.550;2023-07-08T07:39:45;101130.03;;;27.84;32.08
75740;BME280;64357;51.344;6.550;2023-07-08T07:42:11;101128.16;;;28.05;31.42
75740;BME280;64357;51.344;6.550;2023-07-08T07:44:37;101138.41;;;27.98;31.64
75740;BME280;64357;51.344;6.550;2023-07-08T07:47:05;101128.72;;;27.97;31.01
75740;BME280;64357;51.344;6.550;2023-07-08T07:49:33;101133.84;;;28.19;31.06
75740;BME280;64357;51.344;6.550;2023-07-08T07:51:59;101127.78;;;28.47;30.55
75740;BME280;64357;51.344;6.550;2023-07-08T07:54:27;101129.56;;;28.77;30.46
75740;BME280;64357;51.344;6.550;2023-07-08T07:56:53;101131.84;;;28.37;30.52
75740;BME280;64357;51.344;6.550;2023-07-08T07:59:18;101142.66;;;27.94;31.78
75740;BME280;64357;51.344;6.550;2023-07-08T08:01:44;101110.00;;;28.13;31.66
75740;BME280;64357;51.344;6.550;2023-07-08T08:04:10;101123.06;;;28.10;31.59
75740;BME280;64357;51.344;6.550;2023-07-08T08:06:36;101132.28;;;28.51;31.41
75740;BME280;64357;51.344;6.550;2023-07-08T08:09:03;101126.75;;;28.42;31.72
75740;BME280;64357;51.344;6.550;2023-07-08T08:11:34;101121.13;;;28.58;30.78
75740;BME280;64357;51.344;6.550;2023-07-08T08:14:20;101115.84;;;28.87;31.04
75740;BME280;64357;51.344;6.550;2023-07-08T08:16:49;101112.81;;;28.73;31.33
75740;BME280;64357;51.344;6.550;2023-07-08T08:19:14;101124.78;;;29.22;30.91
75740;BME280;64357;51.344;6.550;2023-07-08T08:21:40;101122.81;;;29.78;29.99
75740;BME280;64357;51.344;6.550;2023-07-08T08:24:05;101139.91;;;29.61;30.12
75740;BME280;64357;51.344;6.550;2023-07-08T08:26:33;101119.34;;;29.47;30.48
75740;BME280;64357;51.344;6.550;2023-07-08T08:28:58;101134.19;;;29.77;30.25
75740;BME280;64357;51.344;6.550;2023-07-08T08:31:23;101143.59;;;30.00;30.02
75740;BME280;64357;51.344;6.550;2023-07-08T08:33:51;101143.81;;;30.10;29.26
75740;BME280;64357;51.344;6.550;2023-07-08T08:36:19;101142.47;;;29.58;29.93
75740;BME280;64357;51.344;6.550;2023-07-08T08:38:46;101147.22;;;30.06;29.10
75740;BME280;64357;51.344;6.550;2023-07-08T08:41:14;101157.03;;;30.46;28.78
75740;BME280;64357;51.344;6.550;2023-07-08T08:43:43;101161.78;;;30.24;29.56
75740;BME280;64357;51.344;6.550;2023-07-08T08:46:19;101152.22;;;31.05;28.07
75740;BME280;64357;51.344;6.550;2023-07-08T08:51:25;101152.16;;;33.03;25.84
75740;BME280;64357;51.344;6.550;2023-07-08T08:53:55;101153.78;;;31.81;26.68
75740;BME280;64357;51.344;6.550;2023-07-08T08:56:25;101150.63;;;31.13;27.36
75740;BME280;64357;51.344;6.550;2023-07-08T09:01:29;101165.25;;;30.97;27.13
75740;BME280;64357;51.344;6.550;2023-07-08T09:06:24;101158.63;;;31.18;27.42
75740;BME280;64357;51.344;6.550;2023-07-08T09:08:50;101159.13;;;31.39;26.87
75740;BME280;64357;51.344;6.550;2023-07-08T09:14:30;101161.75;;;30.97;27.33
75740;BME280;64357;51.344;6.550;2023-07-08T09:19:32;101161.03;;;31.05;28.05
75740;BME280;64357;51.344;6.550;2023-07-08T09:22:05;101154.31;;;31.65;27.09
75740;BME280;64357;51.344;6.550;2023-07-08T09:27:14;101156.63;;;31.47;26.77
75740;BME280;64357;51.344;6.550;2023-07-08T09:29:40;101155.81;;;31.96;26.14
75740;BME280;64357;51.344;6.550;2023-07-08T09:32:24;101158.28;;;31.87;25.73
75740;BME280;64357;51.344;6.550;2023-07-08T09:35:18;101150.38;;;32.42;25.14
75740;BME280;64357;51.344;6.550;2023-07-08T09:37:50;101143.34;;;33.01;24.86
75740;BME280;64357;51.344;6.550;2023-07-08T09:42:43;101159.75;;;33.47;24.62
75740;BME280;64357;51.344;6.550;2023-07-08T09:45:17;101152.63;;;33.40;24.21
75740;BME280;64357;51.344;6.550;2023-07-08T09:47:44;101155.44;;;33.55;23.87
75740;BME280;64357;51.344;6.550;2023-07-08T09:50:29;101160.78;;;34.57;22.87
75740;BME280;64357;51.344;6.550;2023-07-08T09:52:57;101145.03;;;33.75;24.16
75740;BME280;64357;51.344;6.550;2023-07-08T09:55:27;101158.69;;;33.33;23.87
75740;BME280;64357;51.344;6.550;2023-07-08T09:57:55;101151.03;;;33.56;23.88
75740;BME280;64357;51.344;6.550;2023-07-08T10:00:29;101160.25;;;33.15;24.43
75740;BME280;64357;51.344;6.550;2023-07-08T10:03:03;101143.97;;;33.55;24.03
75740;BME280;64357;51.344;6.550;2023-07-08T10:05:34;101159.41;;;35.39;21.85
75740;BME280;64357;51.344;6.550;2023-07-08T10:08:02;101160.44;;;36.20;21.76
75740;BME280;64357;51.344;6.550;2023-07-08T10:10:35;101148.34;;;33.53;23.33
75740;BME280;64357;51.344;6.550;2023-07-08T10:13:11;101158.84;;;33.44;23.86
75740;BME280;64357;51.344;6.550;2023-07-08T10:15:42;101150.91;;;34.39;23.17
75740;BME280;64357;51.344;6.550;2023-07-08T10:18:14;101153.31;;;36.47;21.79
75740;BME280;64357;51.344;6.550;2023-07-08T10:26:16;101146.16;;;33.96;22.96
75740;BME280;64357;51.344;6.550;2023-07-08T10:28:53;101142.41;;;33.77;23.76
75740;BME280;64357;51.344;6.550;2023-07-08T10:31:39;101135.03;;;33.44;23.79
75740;BME280;64357;51.344;6.550;2023-07-08T10:34:18;101131.16;;;34.01;22.67
75740;BME280;64357;51.344;6.550;2023-07-08T10:37:09;101123.63;;;33.54;23.64
75740;BME280;64357;51.344;6.550;2023-07-08T10:39:53;101134.63;;;33.93;23.03
75740;BME280;64357;51.344;6.550;2023-07-08T10:45:13;101126.59;;;33.84;23.34
75740;BME280;64357;51.344;6.550;2023-07-08T10:47:56;101118.13;;;34.34;23.05
75740;BME280;64357;51.344;6.550;2023-07-08T10:53:46;101126.72;;;35.79;21.40
75740;BME280;64357;51.344;6.550;2023-07-08T10:59:19;101121.97;;;37.31;19.67
75740;BME280;64357;51.344;6.550;2023-07-08T11:02:02;101120.53;;;35.59;21.12
75740;BME280;64357;51.344;6.550;2023-07-08T11:10:29;101115.94;;;36.91;21.02
75740;BME280;64357;51.344;6.550;2023-07-08T11:13:03;101115.22;;;36.14;20.95
75740;BME280;64357;51.344;6.550;2023-07-08T11:15:36;101119.63;;;35.54;21.41
75740;BME280;64357;51.344;6.550;2023-07-08T11:18:16;101116.09;;;35.79;21.12
75740;BME280;64357;51.344;6.550;2023-07-08T11:20:55;101109.91;;;36.07;21.43
75740;BME280;64357;51.344;6.550;2023-07-08T11:23:43;101113.22;;;37.03;20.74
75740;BME280;64357;51.344;6.550;2023-07-08T11:26:16;101107.81;;;37.20;20.17
75740;BME280;64357;51.344;6.550;2023-07-08T11:28:46;101108.66;;;37.36;19.83
75740;BME280;64357;51.344;6.550;2023-07-08T11:31:14;101114.28;;;38.10;19.02
75740;BME280;64357;51.344;6.550;2023-07-08T11:33:40;101122.56;;;38.72;19.14
75740;BME280;64357;51.344;6.550;2023-07-08T11:36:10;101126.47;;;38.40;19.42
75740;BME280;64357;51.344;6.550;2023-07-08T11:38:50;101109.88;;;36.26;20.20
75740;BME280;64357;51.344;6.550;2023-07-08T11:41:18;101106.31;;;36.53;20.17
75740;BME280;64357;51.344;6.550;2023-07-08T11:46:27;101113.56;;;37.94;19.14
75740;BME280;64357;51.344;6.550;2023-07-08T11:48:59;101122.09;;;37.04;19.57
75740;BME280;64357;51.344;6.550;2023-07-08T11:51:43;101113.25;;;37.02;20.63
75740;BME280;64357;51.344;6.550;2023-07-08T11:54:28;101108.00;;;36.73;20.00
75740;BME280;64357;51.344;6.550;2023-07-08T11:57:44;101099.50;;;37.71;20.05
75740;BME280;64357;51.344;6.550;2023-07-08T12:00:21;101104.03;;;38.56;19.89
75740;BME280;64357;51.344;6.550;2023-07-08T12:02:51;101104.63;;;38.00;19.87
75740;BME280;64357;51.344;6.550;2023-07-08T12:05:29;101105.50;;;38.00;20.04
75740;BME280;64357;51.344;6.550;2023-07-08T12:08:03;101106.31;;;36.44;20.20
75740;BME280;64357;51.344;6.550;2023-07-08T12:10:51;101094.81;;;35.50;21.02
75740;BME280;64357;51.344;6.550;2023-07-08T12:13:23;101100.84;;;34.97;21.41
75740;BME280;64357;51.344;6.550;2023-07-08T12:15:54;101097.47;;;35.66;21.03
75740;BME280;64357;51.344;6.550;2023-07-08T12:18:22;101093.81;;;35.15;21.10
75740;BME280;64357;51.344;6.550;2023-07-08T12:20:56;101096.56;;;35.47;20.93
75740;BME280;64357;51.344;6.550;2023-07-08T12:23:24;101081.38;;;36.70;19.90
75740;BME280;64357;51.344;6.550;2023-07-08T12:26:01;101072.47;;;36.83;20.14
75740;BME280;64357;51.344;6.550;2023-07-08T12:28:32;101086.28;;;37.55;19.77
75740;BME280;64357;51.344;6.550;2023-07-08T12:31:01;101075.69;;;37.46;20.05
75740;BME280;64357;51.344;6.550;2023-07-08T12:33:33;101077.19;;;37.84;19.98
75740;BME280;64357;51.344;6.550;2023-07-08T12:36:01;101072.69;;;36.00;20.68
75740;BME280;64357;51.344;6.550;2023-07-08T12:38:47;101058.47;;;35.65;21.28
75740;BME280;64357;51.344;6.550;2023-07-08T12:41:23;101062.75;;;36.73;20.06
75740;BME280;64357;51.344;6.550;2023-07-08T12:43:51;101070.41;;;37.34;18.92
75740;BME280;64357;51.344;6.550;2023-07-08T12:46:30;101061.72;;;37.06;19.65
75740;BME280;64357;51.344;6.550;2023-07-08T12:48:58;101065.38;;;36.79;20.43
75740;BME280;64357;51.344;6.550;2023-07-08T12:51:26;101063.75;;;36.26;20.56
75740;BME280;64357;51.344;6.550;2023-07-08T12:53:53;101075.31;;;35.55;20.02
75740;BME280;64357;51.344;6.550;2023-07-08T12:56:20;101078.84;;;35.70;20.42
75740;BME280;64357;51.344;6.550;2023-07-08T12:58:52;101046.97;;;35.43;20.44
75740;BME280;64357;51.344;6.550;2023-07-08T13:01:35;101066.38;;;35.28;20.93
75740;BME280;64357;51.344;6.550;2023-07-08T13:04:06;101052.88;;;34.64;21.67
75740;BME280;64357;51.344;6.550;2023-07-08T13:06:39;101060.03;;;34.80;21.85
75740;BME280;64357;51.344;6.550;2023-07-08T13:11:56;101063.59;;;34.85;20.66
75740;BME280;64357;51.344;6.550;2023-07-08T13:14:23;101055.72;;;35.10;21.03
75740;BME280;64357;51.344;6.550;2023-07-08T13:16:52;101047.81;;;35.37;21.08
75740;BME280;64357;51.344;6.550;2023-07-08T13:19:17;101053.03;;;34.93;21.40
75740;BME280;64357;51.344;6.550;2023-07-08T13:21:44;101053.56;;;34.28;21.65
75740;BME280;64357;51.344;6.550;2023-07-08T13:24:12;101059.44;;;33.87;22.17
75740;BME280;64357;51.344;6.550;2023-07-08T13:26:37;101057.06;;;34.22;21.29
75740;BME280;64357;51.344;6.550;2023-07-08T13:29:13;101052.84;;;34.59;21.16
75740;BME280;64357;51.344;6.550;2023-07-08T13:31:48;101063.63;;;34.90;20.97
75740;BME280;64357;51.344;6.550;2023-07-08T13:34:17;101062.59;;;34.56;21.32
75740;BME280;64357;51.344;6.550;2023-07-08T13:36:48;101059.72;;;34.22;21.93
75740;BME280;64357;51.344;6.550;2023-07-08T13:39:19;101061.38;;;34.05;21.93
75740;BME280;64357;51.344;6.550;2023-07-08T13:41:48;101044.50;;;33.93;22.04
75740;BME280;64357;51.344;6.550;2023-07-08T13:44:13;101061.16;;;33.79;22.39
75740;BME280;64357;51.344;6.550;2023-07-08T13:46:45;101056.78;;;33.88;22.35
75740;BME280;64357;51.344;6.550;2023-07-08T13:49:15;101068.56;;;34.21;22.03
75740;BME280;64357;51.344;6.550;2023-07-08T13:51:42;101064.94;;;34.07;22.50